Fecha, hora, temperatura, viento dirección y velocidad, humedad y presión.

  • 16-01-2019 16:00:00 | 11.90°C | Noroeste |9.00 km/h | 78.00% | 1011.10 hPa
  • 16-01-2019 15:00:00 | 12.80°C | Noroeste |10.00 km/h | 64.00% | 1010.80 hPa
  • 16-01-2019 14:00:00 | 14.30°C | Sudoeste |3.00 km/h | 62.00% | 1011.10 hPa
  • 16-01-2019 13:00:00 | 11.30°C | Sur |6.00 km/h | 79.00% | 1011.60 hPa
  • 16-01-2019 12:00:00 | 8.60°C | Sudoeste |7.00 km/h | 81.00% | 1012.50 hPa
  • 16-01-2019 11:00:00 | 5.30°C | Sudoeste |12.00 km/h | 86.00% | 1012.80 hPa
  • 16-01-2019 10:00:00 | 4.10°C | Sudoeste |13.00 km/h | 88.00% | 1012.40 hPa
  • 16-01-2019 09:00:00 | 3.50°C | Sudoeste |11.00 km/h | 88.00% | 1012.00 hPa
  • 16-01-2019 08:00:00 | 2.90°C | Sudoeste |14.00 km/h | 87.00% | 1011.80 hPa
  • 16-01-2019 07:00:00 | 2.70°C | Sudoeste |11.00 km/h | 90.00% | 1011.30 hPa
  • 16-01-2019 06:00:00 | 2.90°C | Sudoeste |12.00 km/h | 90.00% | 1011.30 hPa
  • 16-01-2019 05:00:00 | 2.60°C | Sudoeste |14.00 km/h | 91.00% | 1011.40 hPa
  • 16-01-2019 04:00:00 | 2.70°C | Sur |14.00 km/h | 91.00% | 1011.70 hPa
  • 16-01-2019 03:00:00 | 2.90°C | Sudoeste |12.00 km/h | 91.00% | 1012.00 hPa
  • 16-01-2019 02:00:00 | 3.20°C | Sur |12.00 km/h | 92.00% | 1012.40 hPa
  • 16-01-2019 01:00:00 | 3.40°C | Sudoeste |12.00 km/h | 91.00% | 1012.90 hPa
  • 16-01-2019 00:00:00 | 3.80°C | Sudoeste |12.00 km/h | 91.00% | 1013.30 hPa
  • 15-01-2019 23:00:00 | 4.40°C | Sudoeste |12.00 km/h | 91.00% | 1013.60 hPa
  • 15-01-2019 22:00:00 | 4.90°C | Sudoeste |12.00 km/h | 91.00% | 1013.60 hPa
  • 15-01-2019 21:00:00 | 5.90°C | Sudoeste |10.00 km/h | 91.00% | 1014.00 hPa
  • 15-01-2019 20:00:00 | 7.30°C | Sudoeste |9.00 km/h | 90.00% | 1014.40 hPa
  • 15-01-2019 19:00:00 | 8.30°C | Sur |6.00 km/h | 89.00% | 1014.40 hPa
  • 15-01-2019 18:00:00 | 9.60°C | Sudeste |3.00 km/h | 85.00% | 1014.40 hPa
  • 15-01-2019 17:00:00 | 10.20°C | Este |9.00 km/h | 83.00% | 1014.50 hPa
    • diseño web asturias Información sobre el estado de las mareas, altura de la marejada, temperatura del agua y otros datos de Gijón en Asturias.

      Surf Gijón